Terminal Aerodrome Forecast
Issued by NWS Columbia, SC

Home | Current Version | Previous Version | Text Only | Print | Product List | Glossary On
Versions: 1 2 3 4 5 6 7 8 9 10 11 12 13 14 15 16 17 18 19 20 21 22 23 24 25
000
FTUS42 KCAE 250939 AAA
TAFCAE
TAF AMD
KCAE 250939Z 2510/2606 00000KT P6SM SCT060
     FM251500 04006KT P6SM SCT050
     FM252200 08005KT P6SM SCT070 BKN250
     FM260000 VRB03KT P6SM SCT070=

USA.gov is the U.S. government's official web portal to all federal, state and local government web resources and services.